Tripler Army Medical Center, HI

10:50 AM HST on July 30, 2015 (GMT -1000)
Pacific Heights | | Change Station
CLOSE
Current Station
Personal Weather Station
Location: Honolulu, HI
Elevation: 528 ft
Nearby Weather Stations

Elev 528 ft 21.33 °N, 157.84 °W | Updated 29 seconds ago

Scattered Clouds
Scattered Clouds
82.6 °F
Feels Like 87 °F
N
6.9
Wind Variable Wind from ESE
Gusts 12.0 mph

Today
High -- | Low -- °F
--% Chance of Precip.
Yesterday
High -- | Low -- °F
Precip. -- in
6:04 AM 7:11 PM
Full, 100% visible
Pressure 29.97 in
Visibility 10.0 miles
Clouds Few 2700 ft
Scattered Clouds 4100 ft
Scattered Clouds 5000 ft
Heat Index 87 °F
Dew Point 71 °F
Humidity 69%
Rainfall 0.02 in
Snow Depth Not available.
UV 6 out of 12
Pollen Not available.
Air Quality Not available.
Flu Activity Not available.
METAR PHNL 301953Z 07010KT 10SM FEW027 SCT041 SCT050 31/21 A2997 RMK AO2 SLP148 T03060211

More Conditions Fewer Conditions

Pressure 29.97 in
Visibility 10.0 miles
Clouds Few 2700 ft
Scattered Clouds 4100 ft
Scattered Clouds 5000 ft
Heat Index 87 °F
Dew Point 71 °F
Humidity 69%
Rainfall 0.02 in
Snow Depth Not available.
UV 6 out of 12
Pollen Not available.
Air Quality Not available.
Flu Activity Not available.
METAR PHNL 301953Z 07010KT 10SM FEW027 SCT041 SCT050 31/21 A2997 RMK AO2 SLP148 T03060211

More Conditions Fewer Conditions

10-Day Weather Forecast

×

Almanac

Astronomy

Jul. 30, 2015 Rise Set
Actual Time
Civil Twilight
Nautical Twilight
Astronomical Twilight
Moon
Length of Visible Light
Length of Day
Tomorrow will be .
, % of the Moon is Illuminated

Today's Extremes

State Highs State Lows

Community

WunderPhotos

Upload Photos

1,842,498 photos uploaded!

WunderBlogs® & News

Nearby

Air Quality

  Air Quality AQ Index Pollutant
Not available.

Snow Depth

Station Depth Elevation

Earthquake Activity

City Distance Mag. Time & Date
Minimum magnitude displayed is 2.5.

Coastal Water Temperatures

Place Temperature

Stations

Nearby Weather Stations

Station Location Temp. Windchill Dew Point Humidity Wind Precip. Elev Updated Type